Terminal Aerodrome Forecast
Issued by NWS

Current Version | Previous Version | Graphics & Text | Print | Product List | Glossary On
Versions: 1 2 3 4 5 6 7 8 9 10 11 12 13 14 15 16 17 18 19 20 21 22 23 24 25
585
FTUS41 KRLX 180538
TAFCKB
TAF
KCKB 180538Z 1806/1906 15004KT P6SM BKN200 WS010/15020KT
     FM181200 19007KT P6SM -SHRA OVC040
     FM181500 20008G14KT 6SM SHRA OVC045
     FM181800 21014G22KT 6SM -SHRA OVC045
     FM190100 20014G24KT 4SM SHRA OVC025
     FM190400 24016G31KT 3SM SHRA OVC015=

USA.gov is the U.S. government's official web portal to all federal, state and local government web resources and services.